createdAt,value
2018-07-07T00:00:06.229Z,19.88
2018-07-07T00:01:06.296Z,19.87
2018-07-07T00:02:06.193Z,19.91
2018-07-07T00:03:06.311Z,19.91
2018-07-07T00:04:06.152Z,19.94
2018-07-07T00:05:06.223Z,19.88
2018-07-07T00:06:06.114Z,19.79
2018-07-07T00:07:06.236Z,19.80
2018-07-07T00:08:06.073Z,19.79
2018-07-07T00:09:06.148Z,19.80
2018-07-07T00:10:06.037Z,19.80
2018-07-07T00:11:06.160Z,19.75
2018-07-07T00:12:05.997Z,19.68
2018-07-07T00:13:06.075Z,19.72
2018-07-07T00:14:05.956Z,19.60
2018-07-07T00:15:06.090Z,19.65
2018-07-07T00:16:05.917Z,19.65
2018-07-07T00:17:05.998Z,19.63
2018-07-07T00:18:05.879Z,19.54
2018-07-07T00:19:06.022Z,19.58
2018-07-07T00:20:05.844Z,19.48
2018-07-07T00:21:05.943Z,19.53
2018-07-07T00:22:05.801Z,19.33
2018-07-07T00:23:05.939Z,19.38
2018-07-07T00:24:05.795Z,19.42
2018-07-07T00:25:05.854Z,19.38
2018-07-07T00:26:05.721Z,19.39
2018-07-07T00:27:05.917Z,19.32
2018-07-07T00:28:05.682Z,19.28
2018-07-07T00:29:05.797Z,19.33
2018-07-07T00:30:05.641Z,19.28
2018-07-07T00:31:05.791Z,19.23
2018-07-07T00:32:05.602Z,19.18
2018-07-07T00:33:05.704Z,19.15
2018-07-07T00:34:05.562Z,19.10
2018-07-07T00:35:05.717Z,19.05
2018-07-07T00:36:05.527Z,19.14
2018-07-07T00:37:05.637Z,18.99
2018-07-07T00:38:05.483Z,18.99
2018-07-07T00:39:05.643Z,19.02
2018-07-07T00:40:05.442Z,18.91
2018-07-07T00:41:05.555Z,18.84
2018-07-07T00:42:05.434Z,18.84
2018-07-07T00:43:05.569Z,18.90
2018-07-07T00:44:05.361Z,18.94
2018-07-07T00:45:05.484Z,18.91
2018-07-07T00:46:05.327Z,18.84
2018-07-07T00:47:05.396Z,18.79
2018-07-07T00:48:05.275Z,18.92
2018-07-07T00:49:05.318Z,18.91
2018-07-07T00:50:05.245Z,18.87
2018-07-07T00:51:05.321Z,18.87
2018-07-07T00:52:05.203Z,18.87
2018-07-07T00:53:05.240Z,18.84
2018-07-07T00:54:05.174Z,18.87
2018-07-07T00:55:05.249Z,18.84
2018-07-07T00:56:05.128Z,18.87
2018-07-07T00:57:05.163Z,18.90
2018-07-07T00:58:05.085Z,18.80
2018-07-07T00:59:05.177Z,18.79
2018-07-07T01:00:05.043Z,18.74
2018-07-07T01:01:05.085Z,18.79
2018-07-07T01:02:05.005Z,18.70
2018-07-07T01:03:05.100Z,18.73
2018-07-07T01:04:04.961Z,18.68
2018-07-07T01:05:05.013Z,18.73
2018-07-07T01:06:04.921Z,18.73
2018-07-07T01:07:05.027Z,18.72
2018-07-07T01:08:04.883Z,18.68
2018-07-07T01:09:04.956Z,18.73
2018-07-07T01:10:04.840Z,18.65
2018-07-07T01:11:04.955Z,18.65
2018-07-07T01:12:04.800Z,18.61
2018-07-07T01:13:04.864Z,18.58
2018-07-07T01:14:04.764Z,18.58
2018-07-07T01:15:04.877Z,18.61
2018-07-07T01:16:04.720Z,18.52
2018-07-07T01:17:04.787Z,18.49
2018-07-07T01:18:04.677Z,18.46
2018-07-07T01:19:04.803Z,18.47
2018-07-07T01:20:04.638Z,18.47
2018-07-07T01:21:04.714Z,18.44
2018-07-07T01:22:04.601Z,18.43
2018-07-07T01:23:04.730Z,18.40
2018-07-07T01:24:04.562Z,18.37
2018-07-07T01:25:04.641Z,18.40
2018-07-07T01:26:04.516Z,18.31
2018-07-07T01:27:04.657Z,18.33
2018-07-07T01:28:04.475Z,18.31
2018-07-07T01:29:04.567Z,18.28
2018-07-07T01:30:04.439Z,18.24
2018-07-07T01:31:04.477Z,18.27
2018-07-07T01:32:04.394Z,18.22
2018-07-07T01:33:04.492Z,18.13
2018-07-07T01:34:04.354Z,18.18
2018-07-07T01:35:04.479Z,18.12
2018-07-07T01:36:07.071Z,18.18
2018-07-07T01:37:04.417Z,18.21
2018-07-07T01:38:04.278Z,18.13
2018-07-07T01:39:04.329Z,18.17
2018-07-07T01:40:04.228Z,18.19
2018-07-07T01:41:04.343Z,18.21
2018-07-07T01:42:04.189Z,18.18
2018-07-07T01:43:04.257Z,18.22
2018-07-07T01:44:04.152Z,18.19
2018-07-07T01:45:04.269Z,18.22
2018-07-07T01:46:04.107Z,18.19
2018-07-07T01:47:04.177Z,18.21
2018-07-07T01:48:04.063Z,18.18
2018-07-07T01:49:04.197Z,18.29
2018-07-07T01:50:04.026Z,18.28
2018-07-07T01:51:04.107Z,18.27
2018-07-07T01:52:03.983Z,18.29
2018-07-07T01:53:04.120Z,18.29
2018-07-07T01:54:03.940Z,18.31
2018-07-07T01:55:04.033Z,18.36
2018-07-07T01:56:03.899Z,18.40
2018-07-07T01:57:04.045Z,18.37
2018-07-07T01:58:03.861Z,18.47
2018-07-07T01:59:03.888Z,18.50
2018-07-07T02:00:03.818Z,18.46
2018-07-07T02:01:03.974Z,18.43
2018-07-07T02:02:03.777Z,18.55
2018-07-07T02:03:03.888Z,18.54
2018-07-07T02:04:03.728Z,18.43
2018-07-07T02:05:03.900Z,18.49
2018-07-07T02:06:03.694Z,18.49
2018-07-07T02:07:03.811Z,18.52
2018-07-07T02:08:03.648Z,18.50
2018-07-07T02:09:03.826Z,18.50
2018-07-07T02:10:03.614Z,18.49
2018-07-07T02:11:03.740Z,18.46
2018-07-07T02:12:03.568Z,18.62
2018-07-07T02:13:03.647Z,18.58
2018-07-07T02:14:03.528Z,18.62
2018-07-07T02:15:03.662Z,18.59
2018-07-07T02:16:03.488Z,18.54
2018-07-07T02:17:03.574Z,18.58
2018-07-07T02:18:03.446Z,18.64
2018-07-07T02:19:03.589Z,18.62
2018-07-07T02:20:03.405Z,18.59
2018-07-07T02:21:03.500Z,18.58
2018-07-07T02:22:03.363Z,18.58
2018-07-07T02:23:03.515Z,18.61
2018-07-07T02:24:03.324Z,18.59
2018-07-07T02:25:03.428Z,18.49
2018-07-07T02:26:03.276Z,18.47
2018-07-07T02:27:03.442Z,18.47
2018-07-07T02:28:03.239Z,18.44
2018-07-07T02:29:03.355Z,18.39
2018-07-07T02:30:03.198Z,18.47
2018-07-07T02:31:03.368Z,18.44
2018-07-07T02:32:03.163Z,18.43
2018-07-07T02:33:03.280Z,18.37
2018-07-07T02:34:03.112Z,18.42
2018-07-07T02:35:03.296Z,18.42
2018-07-07T02:36:03.074Z,18.39
2018-07-07T02:37:03.204Z,18.29
2018-07-07T02:38:03.054Z,18.33
2018-07-07T02:39:03.219Z,18.25
2018-07-07T02:40:02.992Z,18.31
2018-07-07T02:41:03.132Z,18.24
2018-07-07T02:42:02.958Z,18.19
2018-07-07T02:43:03.043Z,18.18
2018-07-07T02:44:02.909Z,18.19
2018-07-07T02:45:02.963Z,18.17
2018-07-07T02:46:02.866Z,18.17
2018-07-07T02:47:02.971Z,18.22
2018-07-07T02:48:02.820Z,18.24
2018-07-07T02:49:02.884Z,18.19
2018-07-07T02:50:02.789Z,18.24
2018-07-07T02:51:02.793Z,18.25
2018-07-07T02:52:02.732Z,18.25
2018-07-07T02:53:02.808Z,18.29
2018-07-07T02:54:02.701Z,18.31
2018-07-07T02:55:02.720Z,18.31
2018-07-07T02:56:02.668Z,18.37
2018-07-07T02:57:02.738Z,18.42
2018-07-07T02:58:02.622Z,18.43
2018-07-07T02:59:02.647Z,18.42
2018-07-07T03:00:02.593Z,18.42
2018-07-07T03:01:02.658Z,18.31
2018-07-07T03:02:02.539Z,18.42
2018-07-07T03:03:02.570Z,18.40
2018-07-07T03:04:02.498Z,18.39
2018-07-07T03:05:02.584Z,18.31
2018-07-07T03:06:02.456Z,18.36
2018-07-07T03:07:02.497Z,18.42
2018-07-07T03:08:02.410Z,18.36
2018-07-07T03:09:02.512Z,18.34
2018-07-07T03:10:02.360Z,18.36
2018-07-07T03:11:02.421Z,18.36
2018-07-07T03:12:02.326Z,18.37
2018-07-07T03:13:02.436Z,18.33
2018-07-07T03:14:02.283Z,18.29
2018-07-07T03:15:02.348Z,18.33
2018-07-07T03:16:02.252Z,18.29
2018-07-07T03:17:02.367Z,18.29
2018-07-07T03:18:02.195Z,18.31
2018-07-07T03:19:02.274Z,18.22
2018-07-07T03:20:02.171Z,18.25
2018-07-07T03:21:02.288Z,18.22
2018-07-07T03:22:02.122Z,18.22
2018-07-07T03:23:02.201Z,18.27
2018-07-07T03:24:02.081Z,18.29
2018-07-07T03:25:02.219Z,18.19
2018-07-07T03:26:02.042Z,18.24
2018-07-07T03:27:02.150Z,18.18
2018-07-07T03:28:02.004Z,18.25
2018-07-07T03:29:02.038Z,18.21
2018-07-07T03:30:01.967Z,18.25
2018-07-07T03:31:02.051Z,18.19
2018-07-07T03:32:01.915Z,18.18
2018-07-07T03:33:01.965Z,18.22
2018-07-07T03:34:01.870Z,18.24
2018-07-07T03:35:01.979Z,18.22
2018-07-07T03:36:01.822Z,18.25
2018-07-07T03:37:01.890Z,18.21
2018-07-07T03:38:01.815Z,18.17
2018-07-07T03:39:01.904Z,18.18
2018-07-07T03:40:01.742Z,18.15
2018-07-07T03:41:01.818Z,18.07
2018-07-07T03:42:01.709Z,18.04
2018-07-07T03:43:01.833Z,18.09
2018-07-07T03:44:01.660Z,18.13
2018-07-07T03:45:01.751Z,18.00
2018-07-07T03:46:01.628Z,18.00
2018-07-07T03:47:01.756Z,17.91
2018-07-07T03:48:01.577Z,17.94
2018-07-07T03:49:01.686Z,17.94
2018-07-07T03:50:01.538Z,17.97
2018-07-07T03:51:01.682Z,17.94
2018-07-07T03:52:01.495Z,17.94
2018-07-07T03:53:01.595Z,17.95
2018-07-07T03:54:01.453Z,17.92
2018-07-07T03:55:01.608Z,17.85
2018-07-07T03:56:01.411Z,17.94
2018-07-07T03:57:01.520Z,17.92
2018-07-07T03:58:01.371Z,17.92
2018-07-07T03:59:01.541Z,17.87
2018-07-07T04:00:01.326Z,17.82
2018-07-07T04:01:01.452Z,17.87
2018-07-07T04:02:01.287Z,17.84
2018-07-07T04:03:01.360Z,17.91
2018-07-07T04:04:01.243Z,17.82
2018-07-07T04:05:01.378Z,17.87
2018-07-07T04:06:01.201Z,17.85
2018-07-07T04:07:01.289Z,17.87
2018-07-07T04:08:01.153Z,17.82
2018-07-07T04:09:01.299Z,17.97
2018-07-07T04:10:01.131Z,17.74
2018-07-07T04:11:01.214Z,17.84
2018-07-07T04:12:01.077Z,17.94
2018-07-07T04:13:01.229Z,17.87
2018-07-07T04:14:01.034Z,17.85
2018-07-07T04:15:01.137Z,17.82
2018-07-07T04:16:00.993Z,17.87
2018-07-07T04:17:01.159Z,17.84
2018-07-07T04:18:00.950Z,17.84
2018-07-07T04:19:01.066Z,17.82
2018-07-07T04:20:00.938Z,17.79
2018-07-07T04:21:01.079Z,17.84
2018-07-07T04:22:00.866Z,17.81
2018-07-07T04:23:00.993Z,17.81
2018-07-07T04:24:00.827Z,17.89
2018-07-07T04:25:01.007Z,17.85
2018-07-07T04:26:00.781Z,17.82
2018-07-07T04:27:00.916Z,17.81
2018-07-07T04:28:00.740Z,17.87
2018-07-07T04:29:00.928Z,17.81
2018-07-07T04:30:00.698Z,17.95
2018-07-07T04:31:00.844Z,17.85
2018-07-07T04:32:00.655Z,17.84
2018-07-07T04:33:00.755Z,17.84
2018-07-07T04:34:00.613Z,17.97
2018-07-07T04:35:00.767Z,17.95
2018-07-07T04:36:00.571Z,17.85
2018-07-07T04:37:00.678Z,17.85
2018-07-07T04:38:00.532Z,17.91
2018-07-07T04:39:00.689Z,17.97
2018-07-07T04:40:00.515Z,17.89
2018-07-07T04:41:00.502Z,17.94
2018-07-07T04:42:00.445Z,17.97
2018-07-07T04:43:00.515Z,17.95
2018-07-07T04:44:00.403Z,17.89
2018-07-07T04:45:00.432Z,17.99
2018-07-07T04:46:00.391Z,17.97
2018-07-07T04:47:00.442Z,18.02
2018-07-07T04:48:00.346Z,18.00
2018-07-07T04:49:00.303Z,18.02
2018-07-07T04:50:00.373Z,17.97
2018-07-07T04:51:00.261Z,18.02
2018-07-07T04:52:00.271Z,18.04
2018-07-07T04:53:00.205Z,17.95
2018-07-07T04:54:00.286Z,18.02
2018-07-07T04:55:00.172Z,18.02
2018-07-07T04:56:00.201Z,18.04
2018-07-07T04:57:00.131Z,18.02
2018-07-07T04:58:00.212Z,18.10
2018-07-07T04:59:00.093Z,18.07
2018-07-07T05:00:00.130Z,18.10
2018-07-07T05:01:00.050Z,18.07
2018-07-07T05:02:00.141Z,18.15
2018-07-07T05:03:00.008Z,18.12
2018-07-07T05:04:00.065Z,18.13
2018-07-07T05:04:59.963Z,18.07
2018-07-07T05:06:00.067Z,18.15
2018-07-07T05:06:59.922Z,18.19
2018-07-07T05:07:59.978Z,18.17
2018-07-07T05:08:59.876Z,18.18
2018-07-07T05:10:00.011Z,18.15
2018-07-07T05:10:59.837Z,18.19
2018-07-07T05:11:59.905Z,18.19
2018-07-07T05:12:59.795Z,18.22
2018-07-07T05:13:59.920Z,18.19
2018-07-07T05:14:59.754Z,18.25
2018-07-07T05:15:59.832Z,18.27
2018-07-07T05:16:59.711Z,18.28
2018-07-07T05:17:59.847Z,18.33
2018-07-07T05:18:59.670Z,18.28
2018-07-07T05:19:59.780Z,18.34
2018-07-07T05:20:59.644Z,18.39
2018-07-07T05:21:59.674Z,18.47
2018-07-07T05:22:59.587Z,18.31
2018-07-07T05:23:59.684Z,18.42
2018-07-07T05:24:59.555Z,18.49
2018-07-07T05:25:59.593Z,18.49
2018-07-07T05:26:59.507Z,18.61
2018-07-07T05:27:59.611Z,18.58
2018-07-07T05:28:59.460Z,18.70
2018-07-07T05:29:59.520Z,18.70
2018-07-07T05:30:59.421Z,18.72
2018-07-07T05:31:59.581Z,18.61
2018-07-07T05:32:59.374Z,18.67
2018-07-07T05:33:59.445Z,18.68
2018-07-07T05:34:59.332Z,18.62
2018-07-07T05:35:59.519Z,18.77
2018-07-07T05:36:59.293Z,18.80
2018-07-07T05:37:59.374Z,18.91
2018-07-07T05:38:59.250Z,18.99
2018-07-07T05:39:59.386Z,18.98
2018-07-07T05:40:59.209Z,19.02
2018-07-07T05:41:59.301Z,19.01
2018-07-07T05:42:59.167Z,19.10
2018-07-07T05:43:59.311Z,19.13
2018-07-07T05:44:59.125Z,19.17
2018-07-07T05:45:59.234Z,19.17
2018-07-07T05:46:59.086Z,19.20
2018-07-07T05:47:59.237Z,19.15
2018-07-07T05:48:59.044Z,19.17
2018-07-07T05:49:59.102Z,19.25
2018-07-07T05:50:59.004Z,19.28
2018-07-07T05:51:59.162Z,19.14
2018-07-07T05:52:58.976Z,19.31
2018-07-07T05:53:59.075Z,19.15
2018-07-07T05:54:58.921Z,19.24
2018-07-07T05:55:58.986Z,19.25
2018-07-07T05:56:58.879Z,19.31
2018-07-07T05:57:59.000Z,19.23
2018-07-07T05:58:58.839Z,19.36
2018-07-07T05:59:58.914Z,19.35
2018-07-07T06:00:58.797Z,19.29
2018-07-07T06:01:58.931Z,19.28
2018-07-07T06:02:58.762Z,19.31
2018-07-07T06:03:58.863Z,19.28
2018-07-07T06:04:58.717Z,19.25
2018-07-07T06:05:58.855Z,19.35
2018-07-07T06:06:58.679Z,19.21
2018-07-07T06:07:58.763Z,19.25
2018-07-07T06:08:58.634Z,19.29
2018-07-07T06:09:58.778Z,19.24
2018-07-07T06:10:58.594Z,19.25
2018-07-07T06:11:58.690Z,19.29
2018-07-07T06:12:58.551Z,19.23
2018-07-07T06:13:58.704Z,19.35
2018-07-07T06:14:58.514Z,19.28
2018-07-07T06:15:58.615Z,19.33
2018-07-07T06:16:58.476Z,19.40
2018-07-07T06:17:58.631Z,19.43
2018-07-07T06:18:58.430Z,19.39
2018-07-07T06:19:58.543Z,19.40
2018-07-07T06:20:58.390Z,19.39
2018-07-07T06:21:58.617Z,19.47
2018-07-07T06:22:58.346Z,19.46
2018-07-07T06:23:58.473Z,19.47
2018-07-07T06:24:58.311Z,19.65
2018-07-07T06:25:58.482Z,19.54
2018-07-07T06:26:58.269Z,19.54
2018-07-07T06:27:58.395Z,19.51
2018-07-07T06:28:58.225Z,19.51
2018-07-07T06:29:58.408Z,19.55
2018-07-07T06:30:58.183Z,19.54
2018-07-07T06:31:58.321Z,19.54
2018-07-07T06:32:58.150Z,19.63
2018-07-07T06:33:58.124Z,19.57
2018-07-07T06:34:58.131Z,19.61
2018-07-07T06:35:58.082Z,19.68
2018-07-07T06:36:58.144Z,19.66
2018-07-07T06:37:58.044Z,19.68
2018-07-07T06:38:58.020Z,19.72
2018-07-07T06:39:58.012Z,19.78
2018-07-07T06:40:58.067Z,19.75
2018-07-07T06:41:57.959Z,19.87
2018-07-07T06:42:57.982Z,19.94
2018-07-07T06:43:57.924Z,20.02
2018-07-07T06:44:57.990Z,20.00
2018-07-07T06:45:57.881Z,20.05
2018-07-07T06:46:57.898Z,20.00
2018-07-07T06:47:57.839Z,20.00
2018-07-07T06:48:57.917Z,20.06
2018-07-07T06:49:57.800Z,20.08
2018-07-07T06:50:57.823Z,20.06
2018-07-07T06:51:57.760Z,20.10
2018-07-07T06:52:57.835Z,20.15
2018-07-07T06:53:57.887Z,20.15
2018-07-07T06:54:57.748Z,20.18
2018-07-07T06:55:57.677Z,20.23
2018-07-07T06:56:57.753Z,20.18
2018-07-07T06:57:57.637Z,20.24
2018-07-07T06:58:57.694Z,20.24
2018-07-07T06:59:57.628Z,20.23
2018-07-07T07:00:57.710Z,20.33
2018-07-07T07:01:57.559Z,20.25
2018-07-07T07:02:57.620Z,20.39
2018-07-07T07:03:57.517Z,20.41
2018-07-07T07:04:57.497Z,20.46
2018-07-07T07:05:57.536Z,20.47
2018-07-07T07:06:57.461Z,20.51
2018-07-07T07:07:57.552Z,20.61
2018-07-07T07:08:57.417Z,20.62
2018-07-07T07:09:57.464Z,20.68
2018-07-07T07:10:57.378Z,20.66
2018-07-07T07:11:57.466Z,20.66
2018-07-07T07:12:57.340Z,20.65
2018-07-07T07:13:57.350Z,20.72
2018-07-07T07:14:57.298Z,20.68
2018-07-07T07:15:57.362Z,20.74
2018-07-07T07:16:57.258Z,20.84
2018-07-07T07:17:57.325Z,20.87
2018-07-07T07:18:57.220Z,20.90
2018-07-07T07:19:57.343Z,20.93
2018-07-07T07:20:57.199Z,20.95
2018-07-07T07:21:57.242Z,20.95
2018-07-07T07:22:57.140Z,21.01
2018-07-07T07:23:57.261Z,21.04
2018-07-07T07:24:57.103Z,21.06
2018-07-07T07:25:57.188Z,21.02
2018-07-07T07:26:57.062Z,21.06
2018-07-07T07:27:57.181Z,21.17
2018-07-07T07:28:57.021Z,21.19
2018-07-07T07:29:57.092Z,21.20
2018-07-07T07:30:56.983Z,21.21
2018-07-07T07:31:57.121Z,21.29
2018-07-07T07:32:56.977Z,21.32
2018-07-07T07:33:57.037Z,21.32
2018-07-07T07:34:56.909Z,21.41
2018-07-07T07:35:57.033Z,21.48
2018-07-07T07:36:56.939Z,21.48
2018-07-07T07:37:56.962Z,21.42
2018-07-07T07:38:56.828Z,21.46
2018-07-07T07:39:56.965Z,21.48
2018-07-07T07:40:56.786Z,21.53
2018-07-07T07:41:56.872Z,21.54
2018-07-07T07:42:56.751Z,21.61
2018-07-07T07:43:56.886Z,21.54
2018-07-07T07:44:56.711Z,21.72
2018-07-07T07:45:56.798Z,21.71
2018-07-07T07:46:56.677Z,21.76
2018-07-07T07:47:56.814Z,21.75
2018-07-07T07:48:56.631Z,21.83
2018-07-07T07:49:56.727Z,21.82
2018-07-07T07:50:56.603Z,21.76
2018-07-07T07:51:56.742Z,21.88
2018-07-07T07:52:56.556Z,21.88
2018-07-07T07:53:56.653Z,21.91
2018-07-07T07:54:56.521Z,21.94
2018-07-07T07:55:56.665Z,21.88
2018-07-07T07:56:56.481Z,22.01
2018-07-07T07:57:56.579Z,22.04
2018-07-07T07:58:56.446Z,22.07
2018-07-07T07:59:56.594Z,22.04
2018-07-07T08:00:56.405Z,22.10
2018-07-07T08:01:56.504Z,22.13
2018-07-07T08:02:56.394Z,22.09
2018-07-07T08:03:56.518Z,22.25
2018-07-07T08:04:56.402Z,22.16
2018-07-07T08:05:56.430Z,22.22
2018-07-07T08:06:56.291Z,22.20
2018-07-07T08:07:56.440Z,22.16
2018-07-07T08:08:56.258Z,22.14
2018-07-07T08:09:56.355Z,22.20
2018-07-07T08:10:56.216Z,22.17
2018-07-07T08:11:56.372Z,22.25
2018-07-07T08:12:56.180Z,22.27
2018-07-07T08:13:56.283Z,22.28
2018-07-07T08:14:56.141Z,22.27
2018-07-07T08:15:56.293Z,22.32
2018-07-07T08:16:56.105Z,22.28
2018-07-07T08:17:56.202Z,22.38
2018-07-07T08:18:56.075Z,22.34
2018-07-07T08:19:56.240Z,22.43
2018-07-07T08:20:56.034Z,22.47
2018-07-07T08:21:56.135Z,22.53
2018-07-07T08:22:56.034Z,22.47
2018-07-07T08:23:56.149Z,22.60
2018-07-07T08:24:55.958Z,22.60
2018-07-07T08:25:56.059Z,22.72
2018-07-07T08:26:55.918Z,22.74
2018-07-07T08:27:56.071Z,22.77
2018-07-07T08:28:55.872Z,22.84
2018-07-07T08:29:56.090Z,22.87
2018-07-07T08:30:55.847Z,22.92
2018-07-07T08:31:55.994Z,23.04
2018-07-07T08:32:55.809Z,23.07
2018-07-07T08:33:55.909Z,23.22
2018-07-07T08:34:55.771Z,23.22
2018-07-07T08:35:55.823Z,23.29
2018-07-07T08:36:55.736Z,23.45
2018-07-07T08:37:55.835Z,23.47
2018-07-07T08:38:55.699Z,23.57
2018-07-07T08:39:55.748Z,23.75
2018-07-07T08:40:55.662Z,23.71
2018-07-07T08:41:55.862Z,23.85
2018-07-07T08:42:55.625Z,23.89
2018-07-07T08:43:55.672Z,23.87
2018-07-07T08:44:55.587Z,23.86
2018-07-07T08:45:55.689Z,23.97
2018-07-07T08:46:55.557Z,23.97
2018-07-07T08:47:55.598Z,24.22
2018-07-07T08:48:55.515Z,24.14
2018-07-07T08:49:55.616Z,24.12
2018-07-07T08:50:55.486Z,24.26
2018-07-07T08:51:55.524Z,24.34
2018-07-07T08:52:55.448Z,24.45
2018-07-07T08:53:55.539Z,24.45
2018-07-07T08:54:55.409Z,24.42
2018-07-07T08:55:55.451Z,24.61
2018-07-07T08:56:55.374Z,24.82
2018-07-07T08:57:55.467Z,24.90
2018-07-07T08:58:55.337Z,25.00
2018-07-07T08:59:55.463Z,25.17
2018-07-07T09:00:55.318Z,25.37
2018-07-07T09:01:55.390Z,25.37
2018-07-07T09:02:55.266Z,25.52
2018-07-07T09:03:55.303Z,25.67
2018-07-07T09:04:55.243Z,25.75
2018-07-07T09:05:55.318Z,25.93
2018-07-07T09:06:55.197Z,25.89
2018-07-07T09:07:55.230Z,25.89
2018-07-07T09:08:55.165Z,26.04
2018-07-07T09:09:55.244Z,26.15
2018-07-07T09:10:55.128Z,26.24
2018-07-07T09:11:55.262Z,26.32
2018-07-07T09:12:55.092Z,26.42
2018-07-07T09:13:55.184Z,26.62
2018-07-07T09:14:55.060Z,26.65
2018-07-07T09:15:55.182Z,26.64
2018-07-07T09:16:55.029Z,26.80
2018-07-07T09:17:55.095Z,26.96
2018-07-07T09:18:54.994Z,27.09
2018-07-07T09:19:55.127Z,27.13
2018-07-07T09:20:54.963Z,27.26
2018-07-07T09:21:55.022Z,27.38
2018-07-07T09:22:54.926Z,27.39
2018-07-07T09:23:55.035Z,27.33
2018-07-07T09:24:54.891Z,27.41
2018-07-07T09:25:54.954Z,27.28
2018-07-07T09:26:54.860Z,27.28
2018-07-07T09:27:54.963Z,27.21
2018-07-07T09:28:54.826Z,27.32
2018-07-07T09:29:54.975Z,27.39
2018-07-07T09:30:54.801Z,27.39
2018-07-07T09:31:54.886Z,27.28
2018-07-07T09:32:54.762Z,27.28
2018-07-07T09:33:54.903Z,27.31
2018-07-07T09:34:54.731Z,27.35
2018-07-07T09:35:54.815Z,27.26
2018-07-07T09:36:54.701Z,27.32
2018-07-07T09:37:54.826Z,27.35
2018-07-07T09:38:54.707Z,27.43
2018-07-07T09:39:54.736Z,27.61
2018-07-07T09:40:54.640Z,27.76
2018-07-07T09:41:54.755Z,27.82
2018-07-07T09:42:54.709Z,27.99
2018-07-07T09:43:54.587Z,28.14
2018-07-07T09:44:54.615Z,28.07
2018-07-07T09:45:54.558Z,27.76
2018-07-07T09:46:54.615Z,27.84
2018-07-07T09:47:54.535Z,27.98
2018-07-07T09:48:54.525Z,28.10
2018-07-07T09:49:54.496Z,28.36
2018-07-07T09:50:54.538Z,28.50
2018-07-07T09:51:54.465Z,28.68
2018-07-07T09:52:54.550Z,28.77
2018-07-07T09:53:54.433Z,28.95
2018-07-07T09:54:54.459Z,29.13
2018-07-07T09:55:54.404Z,29.23
2018-07-07T09:56:54.473Z,29.37
2018-07-07T09:57:54.387Z,29.37
2018-07-07T09:58:54.385Z,29.55
2018-07-07T09:59:54.344Z,29.49
2018-07-07T10:00:54.398Z,29.49
2018-07-07T10:01:54.374Z,29.50
2018-07-07T10:02:54.408Z,29.31
2018-07-07T10:03:54.275Z,29.31
2018-07-07T10:04:54.322Z,29.15
2018-07-07T10:05:54.268Z,29.08
2018-07-07T10:06:54.333Z,29.25
2018-07-07T10:07:54.228Z,29.41
2018-07-07T10:08:54.240Z,29.65
2018-07-07T10:09:54.205Z,29.90
2018-07-07T10:10:54.258Z,29.89
2018-07-07T10:11:54.170Z,30.05
2018-07-07T10:12:54.268Z,29.97
2018-07-07T10:13:54.144Z,29.84
2018-07-07T10:14:54.180Z,29.65
2018-07-07T10:15:54.116Z,29.63
2018-07-07T10:16:54.189Z,29.70
2018-07-07T10:17:54.086Z,29.71
2018-07-07T10:18:54.099Z,29.41
2018-07-07T10:19:54.085Z,29.31
2018-07-07T10:20:54.114Z,29.31
2018-07-07T10:21:54.033Z,29.41
2018-07-07T10:22:54.141Z,29.65
2018-07-07T10:23:53.996Z,29.93
2018-07-07T10:24:54.032Z,30.19
2018-07-07T10:25:53.976Z,30.45
2018-07-07T10:26:54.045Z,30.50
2018-07-07T10:27:53.948Z,30.50
2018-07-07T10:28:53.955Z,30.74
2018-07-07T10:29:53.922Z,30.68
2018-07-07T10:30:53.968Z,30.90
2018-07-07T10:31:53.896Z,30.99
2018-07-07T10:32:54.021Z,31.06
2018-07-07T10:33:53.870Z,31.06
2018-07-07T10:34:53.885Z,30.98
2018-07-07T10:35:53.843Z,30.93
2018-07-07T10:36:53.904Z,30.65
2018-07-07T10:37:53.817Z,30.75
2018-07-07T10:38:53.913Z,30.86
2018-07-07T10:39:53.793Z,30.87
2018-07-07T10:40:53.828Z,30.99
2018-07-07T10:41:53.765Z,31.20
2018-07-07T10:42:53.839Z,30.94
2018-07-07T10:43:53.741Z,31.11
2018-07-07T10:44:53.752Z,31.08
2018-07-07T10:45:53.940Z,30.91
2018-07-07T10:46:53.773Z,30.78
2018-07-07T10:47:53.689Z,30.74
2018-07-07T10:48:53.811Z,30.80
2018-07-07T10:49:53.669Z,30.76
2018-07-07T10:50:53.687Z,30.86
2018-07-07T10:51:53.639Z,31.01
2018-07-07T10:52:53.704Z,31.17
2018-07-07T10:53:53.614Z,31.20
2018-07-07T10:54:53.708Z,31.42
2018-07-07T10:55:53.599Z,31.75
2018-07-07T10:56:53.617Z,31.28
2018-07-07T10:57:53.567Z,31.27
2018-07-07T10:58:53.635Z,31.42
2018-07-07T10:59:53.540Z,31.42
2018-07-07T11:00:53.643Z,31.55
2018-07-07T11:01:53.530Z,31.67
2018-07-07T11:02:53.564Z,31.55
2018-07-07T11:03:53.495Z,31.67
2018-07-07T11:04:53.572Z,31.77
2018-07-07T11:05:53.468Z,31.95
2018-07-07T11:06:53.476Z,32.06
2018-07-07T11:07:53.445Z,32.21
2018-07-07T11:08:53.487Z,32.30
2018-07-07T11:09:53.421Z,32.32
2018-07-07T11:10:53.501Z,32.30
2018-07-07T11:11:53.496Z,32.14
2018-07-07T11:12:53.432Z,31.68
2018-07-07T11:13:53.381Z,31.23
2018-07-07T11:14:53.425Z,31.38
2018-07-07T11:15:53.350Z,31.45
2018-07-07T11:16:53.440Z,31.39
2018-07-07T11:17:53.330Z,31.18
2018-07-07T11:18:53.351Z,31.18
2018-07-07T11:19:53.328Z,31.06
2018-07-07T11:20:53.363Z,31.02
2018-07-07T11:21:53.282Z,30.91
2018-07-07T11:22:53.374Z,31.01
2018-07-07T11:23:53.258Z,31.12
2018-07-07T11:24:53.285Z,31.17
2018-07-07T11:25:53.261Z,31.39
2018-07-07T11:26:53.300Z,31.57
2018-07-07T11:27:53.213Z,31.64
2018-07-07T11:28:53.327Z,31.75
2018-07-07T11:29:53.274Z,31.84
2018-07-07T11:30:53.222Z,31.79
2018-07-07T11:31:53.167Z,31.82
2018-07-07T11:32:53.233Z,31.82
2018-07-07T11:33:53.160Z,31.79
2018-07-07T11:34:53.243Z,31.91
2018-07-07T11:35:53.123Z,32.02
2018-07-07T11:36:53.212Z,32.06
2018-07-07T11:37:53.090Z,32.20
2018-07-07T11:38:53.189Z,32.30
2018-07-07T11:39:53.076Z,32.27
2018-07-07T11:40:53.178Z,32.33
2018-07-07T11:41:53.057Z,32.44
2018-07-07T11:42:53.082Z,32.48
2018-07-07T11:43:53.034Z,32.51
2018-07-07T11:44:53.099Z,32.39
2018-07-07T11:45:53.088Z,32.55
2018-07-07T11:46:53.111Z,32.49
2018-07-07T11:47:52.984Z,32.59
2018-07-07T11:48:53.021Z,32.77
2018-07-07T11:49:52.973Z,32.88
2018-07-07T11:50:53.033Z,32.81
2018-07-07T11:51:52.946Z,32.92
2018-07-07T11:52:53.047Z,33.06
2018-07-07T11:53:52.928Z,33.08
2018-07-07T11:54:52.958Z,32.99
2018-07-07T11:55:52.906Z,33.01
2018-07-07T11:56:52.969Z,33.01
2018-07-07T11:57:52.881Z,32.91
2018-07-07T11:58:52.982Z,32.92
2018-07-07T11:59:52.864Z,32.85
2018-07-07T12:00:52.978Z,32.89
2018-07-07T12:01:52.845Z,32.88
2018-07-07T12:02:52.992Z,32.71
2018-07-07T12:03:52.824Z,32.76
2018-07-07T12:04:52.927Z,32.89
2018-07-07T12:05:52.801Z,32.89
2018-07-07T12:06:52.790Z,32.77
2018-07-07T12:08:00.830Z,32.99
2018-07-07T12:08:52.767Z,32.91
2018-07-07T12:09:52.952Z,33.03
2018-07-07T12:10:52.748Z,33.22
2018-07-07T12:11:52.851Z,33.31
2018-07-07T12:12:52.727Z,33.17
2018-07-07T12:13:52.765Z,33.01
2018-07-07T12:14:52.714Z,33.01
2018-07-07T12:15:52.830Z,32.99
2018-07-07T12:16:52.685Z,33.11
2018-07-07T12:17:52.700Z,33.08
2018-07-07T12:18:52.668Z,33.10
2018-07-07T12:19:52.663Z,33.34
2018-07-07T12:20:52.649Z,33.29
2018-07-07T12:21:52.817Z,33.20
2018-07-07T12:22:52.629Z,33.30
2018-07-07T12:23:52.834Z,33.22
2018-07-07T12:24:52.635Z,33.23
2018-07-07T12:25:52.595Z,33.34
2018-07-07T12:26:52.647Z,33.43
2018-07-07T12:27:52.577Z,33.64
2018-07-07T12:28:52.714Z,33.74
2018-07-07T12:29:52.557Z,33.65
2018-07-07T12:30:52.549Z,33.29
2018-07-07T12:31:52.538Z,32.99
2018-07-07T12:32:52.590Z,32.89
2018-07-07T12:33:52.520Z,32.79
2018-07-07T12:34:52.604Z,32.71
2018-07-07T12:35:52.499Z,32.80
2018-07-07T12:36:52.517Z,32.55
2018-07-07T12:37:52.501Z,32.71
2018-07-07T12:38:52.533Z,32.73
2018-07-07T12:39:52.465Z,32.73
2018-07-07T12:40:52.599Z,32.74
2018-07-07T12:41:52.445Z,32.73
2018-07-07T12:42:52.461Z,32.62
2018-07-07T12:43:52.422Z,32.59
2018-07-07T12:44:52.506Z,32.39
2018-07-07T12:45:52.431Z,32.44
2018-07-07T12:46:52.495Z,32.47
2018-07-07T12:47:52.383Z,32.66
2018-07-07T12:48:52.396Z,32.99
2018-07-07T12:49:52.353Z,33.11
2018-07-07T12:50:52.411Z,33.15
2018-07-07T12:51:52.355Z,33.08